Portada
METAR-TAF:

METAR-TAF

Aeroports :

Kosrae, Micronèsia

latitud: 05-21N, longitud: 162-57E, altitud: 3 m

Observació

L'informe es va fer fa 18 hores i 36 minuts, a les 01:50 UTC
Vent 7 kt del Est
Temperatura 31°C
Humitat 75%
Pressió 1005 hPa
Visibilitat: 16.1 km
Escasses núvols a una alçada de 2100 ft
Núvols disperses a una alçada de 13000 ft
Cel cobert a una alçada de 30000 ft

METAR: PTSA 140150Z 09007KT 10SM FEW021 SCT130 OVC300 31/26 A2968

Hora: 07:26 (20:26 UTC)

Pronòstic

L'informe es va fer fa 14 hores i 48 minuts, a les 05:38 UTC
Pronòstic vàlid del 14 a les 06 UTC al 15 a les 06 UTC
Vent 10 kt del Est
Visibilitat: 10 km
Núvols disperses a una alçada de 2000 ft
Núvols disperses a una alçada de 4000 ft
Cel ennuvolat a una alçada de 13000 ft
xàfecs en les proximitats

TAF: PTSA 140538Z 1406/1506 09010KT P6SM VCSH SCT020 SCT040 BKN130

Observacions i pronòstics meteorològics de més de 4000 aeroports (METAR i TAF).

Les estacions disponibles són els punts grocs i vermells al mapa.

Posi el ratolí al punt desitjat per veure el nom de l'estació.

Feu clic per veure les observacions i els pronòstics meteorològics.

Per canviar el mapa: feu clic els botons verds amb una creu de color negre per apropar; al botó verd amb un guió per allunyar la imatge; o en les fletxes verdes per a mapes adjacents.


METAR-TAF: